createdAt,value
2022-12-09T00:00:32.461Z,57.85
2022-12-09T00:03:00.325Z,59.58
2022-12-09T00:05:27.690Z,61.97
2022-12-09T00:07:55.193Z,52.22
2022-12-09T00:10:22.455Z,56.38
2022-12-09T00:12:49.659Z,49.80
2022-12-09T00:15:17.054Z,53.38
2022-12-09T00:17:44.263Z,58.10
2022-12-09T00:20:12.293Z,48.85
2022-12-09T00:22:39.826Z,53.65
2022-12-09T00:25:07.830Z,57.00
2022-12-09T00:27:35.212Z,56.08
2022-12-09T00:30:02.531Z,51.92
2022-12-09T00:32:30.155Z,54.83
2022-12-09T00:34:57.437Z,49.47
2022-12-09T00:37:24.774Z,52.85
2022-12-09T00:39:52.026Z,53.92
2022-12-09T00:42:19.218Z,56.90
2022-12-09T00:44:46.522Z,49.92
2022-12-09T00:47:13.997Z,55.47
2022-12-09T00:49:41.560Z,56.17
2022-12-09T00:52:09.068Z,52.25
2022-12-09T00:54:36.333Z,57.67
2022-12-09T00:57:03.599Z,52.63
2022-12-09T00:59:30.835Z,48.85
2022-12-09T01:01:58.300Z,52.38
2022-12-09T01:04:25.678Z,51.65
2022-12-09T01:06:53.006Z,59.00
2022-12-09T01:09:20.308Z,61.67
2022-12-09T01:11:47.561Z,57.22
2022-12-09T01:14:14.781Z,61.70
2022-12-09T01:16:42.089Z,61.90
2022-12-09T01:19:10.860Z,59.25
2022-12-09T01:21:38.376Z,60.22
2022-12-09T01:24:12.162Z,58.55
2022-12-09T01:26:39.955Z,57.90
2022-12-09T01:29:07.357Z,64.47
2022-12-09T01:31:34.992Z,57.95
2022-12-09T01:34:02.251Z,53.00
2022-12-09T01:36:30.526Z,55.20
2022-12-09T01:38:59.471Z,53.05
2022-12-09T01:41:26.940Z,53.60
2022-12-09T01:44:24.692Z,50.75
2022-12-09T01:46:56.863Z,53.45
2022-12-09T01:49:42.545Z,53.53
2022-12-09T01:52:12.584Z,51.00
2022-12-09T01:54:41.850Z,53.42
2022-12-09T01:59:37.835Z,51.13
2022-12-09T02:02:06.595Z,45.05
2022-12-09T02:04:39.662Z,49.00
2022-12-09T02:07:10.000Z,48.28
2022-12-09T02:09:38.206Z,43.38
2022-12-09T02:12:20.521Z,47.92
2022-12-09T02:15:12.924Z,46.08
2022-12-09T02:17:42.341Z,48.95
2022-12-09T02:20:18.595Z,51.78
2022-12-09T02:22:49.495Z,49.35
2022-12-09T02:25:33.491Z,46.15
2022-12-09T02:28:11.749Z,42.88
2022-12-09T02:30:52.318Z,49.33
2022-12-09T02:33:43.668Z,45.40
2022-12-09T02:36:15.453Z,41.58
2022-12-09T02:38:44.322Z,41.17
2022-12-09T02:41:19.109Z,43.15
2022-12-09T02:43:50.795Z,38.15
2022-12-09T02:46:20.210Z,44.65
2022-12-09T02:51:18.815Z,41.08
2022-12-09T02:56:15.656Z,34.00
2022-12-09T02:58:42.882Z,44.45
2022-12-09T03:01:32.539Z,49.92
2022-12-09T03:03:59.866Z,41.50
2022-12-09T03:06:32.162Z,45.53
2022-12-09T03:09:08.187Z,46.60
2022-12-09T03:11:36.517Z,52.15
2022-12-09T03:14:20.169Z,45.33
2022-12-09T03:17:01.314Z,42.70
2022-12-09T03:19:37.951Z,43.50
2022-12-09T03:22:09.370Z,42.15
2022-12-09T03:24:55.833Z,42.60
2022-12-09T03:27:26.642Z,39.13
2022-12-09T03:29:54.086Z,41.90
2022-12-09T03:32:23.871Z,43.47
2022-12-09T03:34:52.328Z,36.90
2022-12-09T03:37:21.167Z,41.90
2022-12-09T03:39:48.859Z,42.63
2022-12-09T03:42:20.663Z,47.47
2022-12-09T03:44:57.320Z,42.65
2022-12-09T03:47:24.693Z,49.30
2022-12-09T03:49:51.999Z,43.63
2022-12-09T03:52:34.153Z,46.92
2022-12-09T03:55:06.594Z,50.42
2022-12-09T03:57:37.686Z,46.85
2022-12-09T04:00:06.650Z,42.55
2022-12-09T04:05:01.818Z,44.88
2022-12-09T04:07:29.078Z,43.67
2022-12-09T04:09:56.534Z,43.20
2022-12-09T04:12:23.742Z,45.80
2022-12-09T04:14:51.263Z,45.25
2022-12-09T04:17:18.864Z,46.40
2022-12-09T04:19:46.116Z,42.00
2022-12-09T04:22:13.992Z,42.85
2022-12-09T04:24:41.207Z,42.15
2022-12-09T04:27:10.066Z,39.47
2022-12-09T04:29:37.261Z,47.63
2022-12-09T04:32:05.287Z,42.25
2022-12-09T04:34:34.031Z,41.63
2022-12-09T04:37:01.299Z,40.88
2022-12-09T04:39:29.216Z,37.17
2022-12-09T04:41:56.520Z,38.88
2022-12-09T04:44:23.900Z,40.33
2022-12-09T04:46:51.163Z,37.70
2022-12-09T04:49:18.595Z,36.92
2022-12-09T04:51:45.814Z,41.67
2022-12-09T04:54:14.121Z,39.60
2022-12-09T04:56:41.805Z,35.75
2022-12-09T04:59:09.446Z,43.10
2022-12-09T05:01:37.100Z,42.88
2022-12-09T05:04:04.883Z,39.22
2022-12-09T05:06:32.955Z,40.85
2022-12-09T05:09:00.630Z,37.13
2022-12-09T05:11:28.279Z,34.75
2022-12-09T05:13:56.017Z,41.88
2022-12-09T05:16:24.107Z,41.92
2022-12-09T05:18:51.577Z,41.25
2022-12-09T05:21:20.496Z,44.45
2022-12-09T05:23:48.657Z,44.63
2022-12-09T05:26:20.833Z,41.75
2022-12-09T05:28:48.684Z,52.00
2022-12-09T05:31:21.065Z,44.88
2022-12-09T05:33:49.742Z,45.10
2022-12-09T05:36:20.867Z,48.83
2022-12-09T05:38:48.436Z,45.75
2022-12-09T05:41:16.637Z,53.13
2022-12-09T05:43:44.049Z,51.63
2022-12-09T05:46:11.758Z,57.95
2022-12-09T05:48:39.833Z,57.63
2022-12-09T05:51:10.512Z,57.53
2022-12-09T05:53:37.939Z,51.28
2022-12-09T05:56:05.797Z,58.75
2022-12-09T05:58:33.666Z,52.70
2022-12-09T06:01:08.127Z,57.05
2022-12-09T06:03:36.509Z,52.38
2022-12-09T06:06:09.405Z,57.25
2022-12-09T06:08:37.937Z,56.38
2022-12-09T06:11:08.717Z,56.50
2022-12-09T06:13:36.128Z,54.70
2022-12-09T06:16:05.421Z,61.72
2022-12-09T06:18:33.784Z,57.45
2022-12-09T06:21:04.893Z,54.88
2022-12-09T06:23:32.157Z,54.88
2022-12-09T06:25:59.542Z,58.50
2022-12-09T06:28:26.859Z,54.75
2022-12-09T06:30:54.503Z,53.55
2022-12-09T06:33:52.457Z,54.78
2022-12-09T06:36:09.634Z,55.50
2022-12-09T06:38:37.143Z,58.28
2022-12-09T06:41:12.960Z,59.40
2022-12-09T06:43:41.409Z,56.70
2022-12-09T06:46:13.012Z,65.63
2022-12-09T06:48:40.943Z,62.72
2022-12-09T06:51:08.338Z,64.55
2022-12-09T06:53:36.124Z,67.90
2022-12-09T06:56:11.514Z,66.90
2022-12-09T06:58:39.320Z,58.92
2022-12-09T07:01:18.401Z,61.63
2022-12-09T07:03:48.205Z,61.08
2022-12-09T07:06:26.780Z,59.45
2022-12-09T07:08:54.869Z,64.80
2022-12-09T07:11:22.613Z,66.22
2022-12-09T07:13:51.533Z,55.10
2022-12-09T07:16:19.389Z,53.63
2022-12-09T07:18:46.980Z,54.08
2022-12-09T07:21:16.897Z,50.50
2022-12-09T07:23:44.757Z,57.00
2022-12-09T07:26:12.523Z,58.85
2022-12-09T07:28:42.642Z,56.10
2022-12-09T07:31:23.620Z,51.58
2022-12-09T07:33:52.854Z,48.55
2022-12-09T07:36:22.294Z,54.08
2022-12-09T07:38:57.191Z,58.72
2022-12-09T07:41:25.240Z,54.03
2022-12-09T07:43:52.912Z,58.08
2022-12-09T07:46:21.710Z,57.67
2022-12-09T07:48:49.507Z,51.92
2022-12-09T07:51:17.020Z,71.05
2022-12-09T07:53:44.560Z,57.55
2022-12-09T07:56:14.787Z,54.67
2022-12-09T07:58:43.097Z,62.67
2022-12-09T08:01:17.448Z,56.22
2022-12-09T08:03:45.607Z,55.05
2022-12-09T08:06:16.140Z,53.90
2022-12-09T08:08:44.257Z,55.45
2022-12-09T08:11:14.651Z,68.50
2022-12-09T08:13:42.450Z,59.53
2022-12-09T08:16:12.495Z,60.08
2022-12-09T08:18:41.297Z,51.17
2022-12-09T08:21:14.139Z,56.40
2022-12-09T08:23:42.044Z,63.97
2022-12-09T08:26:10.785Z,53.95
2022-12-09T08:28:39.434Z,51.42
2022-12-09T08:31:15.597Z,52.33
2022-12-09T08:33:43.499Z,50.83
2022-12-09T08:36:16.660Z,72.95
2022-12-09T08:38:44.231Z,58.72
2022-12-09T08:41:17.016Z,54.55
2022-12-09T08:43:45.022Z,52.88
2022-12-09T08:46:12.962Z,50.83
2022-12-09T08:48:41.723Z,51.88
2022-12-09T08:51:10.625Z,53.55
2022-12-09T08:53:38.396Z,48.72
2022-12-09T08:56:15.558Z,53.28
2022-12-09T08:58:43.341Z,51.05
2022-12-09T09:01:19.811Z,52.33
2022-12-09T09:03:49.090Z,52.25
2022-12-09T09:06:18.158Z,65.35
2022-12-09T09:08:46.060Z,47.38
2022-12-09T09:11:16.805Z,53.80
2022-12-09T09:13:46.043Z,56.20
2022-12-09T09:16:16.011Z,54.08
2022-12-09T09:18:44.687Z,47.58
2022-12-09T09:21:13.992Z,42.55
2022-12-09T09:23:42.803Z,42.20
2022-12-09T09:26:15.203Z,39.85
2022-12-09T09:28:43.238Z,38.17
2022-12-09T09:31:13.376Z,46.45
2022-12-09T09:33:40.996Z,46.65
2022-12-09T09:36:12.200Z,42.55
2022-12-09T09:38:40.246Z,36.08
2022-12-09T09:41:28.081Z,39.17
2022-12-09T09:43:56.347Z,41.05
2022-12-09T09:46:44.973Z,41.25
2022-12-09T09:49:27.855Z,43.50
2022-12-09T09:51:55.679Z,48.50
2022-12-09T09:54:23.485Z,44.33
2022-12-09T09:57:20.079Z,32.50
2022-12-09T10:00:05.015Z,39.38
2022-12-09T10:03:01.502Z,36.50
2022-12-09T10:05:35.660Z,27.20
2022-12-09T10:08:33.782Z,38.13
2022-12-09T10:11:21.090Z,35.35
2022-12-09T10:14:14.523Z,33.05
2022-12-09T10:17:13.714Z,31.10
2022-12-09T10:19:48.754Z,33.42
2022-12-09T10:22:20.398Z,32.08
2022-12-09T10:25:00.004Z,36.75
2022-12-09T10:27:31.413Z,32.42
2022-12-09T10:30:12.796Z,30.13
2022-12-09T10:32:44.041Z,30.65
2022-12-09T10:35:18.043Z,30.10
2022-12-09T10:37:47.921Z,35.88
2022-12-09T10:43:10.256Z,27.67
2022-12-09T10:48:44.723Z,30.23
2022-12-09T10:51:22.922Z,34.30
2022-12-09T10:54:02.909Z,34.97
2022-12-09T10:56:33.458Z,43.10
2022-12-09T10:59:18.021Z,40.65
2022-12-09T11:02:02.054Z,41.38
2022-12-09T11:04:36.342Z,45.08
2022-12-09T11:07:12.038Z,45.20
2022-12-09T11:09:44.811Z,63.45
2022-12-09T11:12:20.277Z,49.15
2022-12-09T11:14:56.906Z,46.20
2022-12-09T11:17:25.318Z,43.03
2022-12-09T11:20:07.900Z,54.33
2022-12-09T11:22:44.185Z,51.55
2022-12-09T11:25:32.498Z,54.85
2022-12-09T11:28:06.095Z,56.65
2022-12-09T11:30:40.654Z,79.25
2022-12-09T11:33:15.227Z,53.85
2022-12-09T11:35:45.879Z,51.70
2022-12-09T11:38:31.893Z,52.67
2022-12-09T11:41:10.840Z,57.17
2022-12-09T11:43:48.319Z,52.20
2022-12-09T11:46:20.795Z,41.72
2022-12-09T11:48:56.817Z,33.17
2022-12-09T11:51:33.005Z,41.35
2022-12-09T11:54:21.864Z,42.08
2022-12-09T11:56:50.359Z,35.35
2022-12-09T11:59:34.773Z,46.53
2022-12-09T12:02:26.638Z,45.83
2022-12-09T12:05:01.733Z,44.53
2022-12-09T12:07:47.380Z,43.65
2022-12-09T12:10:25.514Z,40.28
2022-12-09T12:13:02.830Z,66.78
2022-12-09T12:15:34.781Z,45.08
2022-12-09T12:21:18.857Z,41.47
2022-12-09T12:24:25.792Z,34.38
2022-12-09T12:27:09.595Z,42.47
2022-12-09T12:29:40.963Z,42.10
2022-12-09T12:32:25.916Z,37.35
2022-12-09T12:35:22.360Z,36.28
2022-12-09T12:38:04.071Z,44.15
2022-12-09T12:41:02.209Z,45.33
2022-12-09T12:44:18.858Z,37.65
2022-12-09T12:47:04.925Z,41.25
2022-12-09T12:49:55.389Z,39.75
2022-12-09T12:56:03.969Z,40.95
2022-12-09T12:58:37.975Z,101.00
2022-12-09T13:01:08.381Z,41.80
2022-12-09T13:03:38.624Z,37.58
2022-12-09T13:06:10.263Z,34.85
2022-12-09T13:09:03.011Z,39.17
2022-12-09T13:11:48.200Z,32.60
2022-12-09T13:14:21.244Z,35.05
2022-12-09T13:16:49.601Z,36.42
2022-12-09T13:19:27.880Z,34.40
2022-12-09T13:21:55.963Z,39.33
2022-12-09T13:24:42.751Z,37.35
2022-12-09T13:27:23.015Z,32.38
2022-12-09T13:30:03.957Z,36.00
2022-12-09T13:32:49.796Z,33.92
2022-12-09T13:36:06.264Z,34.03
2022-12-09T13:38:39.737Z,33.97
2022-12-09T13:41:51.894Z,36.00
2022-12-09T13:44:19.271Z,29.25
2022-12-09T13:46:46.549Z,31.02
2022-12-09T13:49:28.872Z,30.45
2022-12-09T13:51:57.009Z,36.22
2022-12-09T13:54:28.305Z,37.83
2022-12-09T13:57:23.529Z,34.35
2022-12-09T13:59:55.447Z,34.05
2022-12-09T14:02:22.831Z,32.83
2022-12-09T14:05:10.740Z,35.30
2022-12-09T14:07:51.933Z,38.13
2022-12-09T14:10:40.711Z,38.90
2022-12-09T14:13:46.573Z,39.78
2022-12-09T14:16:34.528Z,44.40
2022-12-09T14:19:26.406Z,40.30
2022-12-09T14:22:17.178Z,47.50
2022-12-09T14:24:45.448Z,43.50
2022-12-09T14:27:14.545Z,38.10
2022-12-09T14:29:47.830Z,38.60
2022-12-09T14:32:32.277Z,41.78
2022-12-09T14:35:02.924Z,42.33
2022-12-09T14:37:43.155Z,55.00
2022-12-09T14:40:26.041Z,123.70
2022-12-09T14:43:25.213Z,88.78
2022-12-09T14:46:02.409Z,47.42
2022-12-09T14:48:40.412Z,87.63
2022-12-09T14:51:20.526Z,69.60
2022-12-09T14:53:52.637Z,59.45
2022-12-09T14:56:21.795Z,54.42
2022-12-09T14:59:18.166Z,55.42
2022-12-09T15:02:00.460Z,50.50
2022-12-09T15:04:42.065Z,45.88
2022-12-09T15:07:15.562Z,45.22
2022-12-09T15:09:50.331Z,46.70
2022-12-09T15:12:18.005Z,53.67
2022-12-09T15:14:46.660Z,55.30
2022-12-09T15:17:27.567Z,63.67
2022-12-09T15:20:02.063Z,56.38
2022-12-09T15:22:31.930Z,54.70
2022-12-09T15:24:59.902Z,60.83
2022-12-09T15:27:27.193Z,61.03
2022-12-09T15:29:54.964Z,60.03
2022-12-09T15:32:28.779Z,61.67
2022-12-09T15:34:56.138Z,63.67
2022-12-09T15:37:28.202Z,58.92
2022-12-09T15:40:05.824Z,59.88
2022-12-09T15:42:34.623Z,64.72
2022-12-09T15:45:08.643Z,58.47
2022-12-09T15:48:03.795Z,57.03
2022-12-09T15:50:54.672Z,58.15
2022-12-09T15:53:36.749Z,45.75
2022-12-09T15:56:12.357Z,48.80
2022-12-09T15:58:45.985Z,48.38
2022-12-09T16:01:23.147Z,47.60
2022-12-09T16:03:51.872Z,47.70
2022-12-09T16:06:26.835Z,43.15
2022-12-09T16:08:54.431Z,48.53
2022-12-09T16:11:37.753Z,45.97
2022-12-09T16:14:08.552Z,46.63
2022-12-09T16:17:03.061Z,46.47
2022-12-09T16:19:38.248Z,43.95
2022-12-09T16:22:16.044Z,42.65
2022-12-09T16:25:13.672Z,46.30
2022-12-09T16:27:44.970Z,50.30
2022-12-09T16:30:23.677Z,56.35
2022-12-09T16:32:59.120Z,57.20
2022-12-09T16:35:40.134Z,55.30
2022-12-09T16:38:10.226Z,53.28
2022-12-09T16:40:43.964Z,43.97
2022-12-09T16:43:17.458Z,43.33
2022-12-09T16:45:47.041Z,55.60
2022-12-09T16:48:14.897Z,51.38
2022-12-09T16:50:49.440Z,55.40
2022-12-09T16:53:19.735Z,61.25
2022-12-09T16:56:19.402Z,60.55
2022-12-09T16:58:46.677Z,59.78
2022-12-09T17:01:28.676Z,65.25
2022-12-09T17:04:04.076Z,57.28
2022-12-09T17:06:31.660Z,55.33
2022-12-09T17:08:59.029Z,56.90
2022-12-09T17:11:26.239Z,58.70
2022-12-09T17:13:53.750Z,64.05
2022-12-09T17:16:23.881Z,59.92
2022-12-09T17:21:49.343Z,64.20
2022-12-09T17:24:16.716Z,63.80
2022-12-09T17:26:43.999Z,66.03
2022-12-09T17:29:11.197Z,69.60
2022-12-09T17:31:38.740Z,67.65
2022-12-09T17:34:06.134Z,64.85
2022-12-09T17:36:33.515Z,63.58
2022-12-09T17:39:02.557Z,64.70
2022-12-09T17:41:29.872Z,61.22
2022-12-09T17:43:59.209Z,63.58
2022-12-09T17:48:53.646Z,60.65
2022-12-09T17:51:23.955Z,47.05
2022-12-09T17:53:51.202Z,49.88
2022-12-09T17:56:20.436Z,52.20
2022-12-09T17:58:58.091Z,54.10
2022-12-09T18:01:25.500Z,55.53
2022-12-09T18:04:01.357Z,58.28
2022-12-09T18:06:34.757Z,55.22
2022-12-09T18:09:04.334Z,59.75
2022-12-09T18:11:31.484Z,59.65
2022-12-09T18:13:59.765Z,63.78
2022-12-09T18:16:27.220Z,65.53
2022-12-09T18:18:54.761Z,73.18
2022-12-09T18:21:22.300Z,60.35
2022-12-09T18:23:49.584Z,65.53
2022-12-09T18:26:18.390Z,69.53
2022-12-09T18:28:46.182Z,70.80
2022-12-09T18:31:15.961Z,65.70
2022-12-09T18:33:43.806Z,68.68
2022-12-09T18:36:24.317Z,57.13
2022-12-09T18:38:53.996Z,58.05
2022-12-09T18:41:26.623Z,54.92
2022-12-09T18:43:55.679Z,59.45
2022-12-09T18:46:28.601Z,64.53
2022-12-09T18:48:58.479Z,57.83
2022-12-09T18:51:26.186Z,65.35
2022-12-09T18:53:56.778Z,69.55
2022-12-09T18:56:24.479Z,63.40
2022-12-09T18:59:08.947Z,66.75
2022-12-09T19:01:41.484Z,59.50
2022-12-09T19:04:23.654Z,66.53
2022-12-09T19:06:53.217Z,62.40
2022-12-09T19:09:26.436Z,74.38
2022-12-09T19:11:53.896Z,71.22
2022-12-09T19:14:22.923Z,71.78
2022-12-09T19:16:51.090Z,69.63
2022-12-09T19:19:20.872Z,69.82
2022-12-09T19:21:48.749Z,71.68
2022-12-09T19:24:25.541Z,71.45
2022-12-09T19:26:54.861Z,78.43
2022-12-09T19:29:24.706Z,67.03
2022-12-09T19:31:52.858Z,64.80
2022-12-09T19:34:22.598Z,75.97
2022-12-09T19:36:51.211Z,78.88
2022-12-09T19:39:20.870Z,73.88
2022-12-09T19:41:48.523Z,63.10
2022-12-09T19:44:30.929Z,74.13
2022-12-09T19:47:04.921Z,77.80
2022-12-09T19:49:32.247Z,75.43
2022-12-09T19:52:00.021Z,70.70
2022-12-09T19:54:29.747Z,69.57
2022-12-09T19:56:57.590Z,74.47
2022-12-09T19:59:26.199Z,75.53
2022-12-09T20:01:53.622Z,73.57
2022-12-09T20:04:48.086Z,69.00
2022-12-09T20:09:37.516Z,69.55
2022-12-09T20:12:04.933Z,67.88
2022-12-09T20:14:32.327Z,61.60
2022-12-09T20:16:59.843Z,62.90
2022-12-09T20:19:27.070Z,74.05
2022-12-09T20:21:54.270Z,65.50
2022-12-09T20:24:21.592Z,67.10
2022-12-09T20:26:49.091Z,67.43
2022-12-09T20:29:16.497Z,61.83
2022-12-09T20:31:43.909Z,63.78
2022-12-09T20:34:16.412Z,54.08
2022-12-09T20:36:44.920Z,62.42
2022-12-09T20:39:18.103Z,55.73
2022-12-09T20:41:45.926Z,63.65
2022-12-09T20:44:14.072Z,67.60
2022-12-09T20:46:44.899Z,84.13
2022-12-09T20:49:12.082Z,71.57
2022-12-09T20:51:41.386Z,70.43
2022-12-09T20:56:37.073Z,58.88
2022-12-09T20:59:04.808Z,57.35
2022-12-09T21:01:34.173Z,61.13
2022-12-09T21:04:03.036Z,59.63
2022-12-09T21:06:32.391Z,52.50
2022-12-09T21:11:27.899Z,56.17
2022-12-09T21:14:00.230Z,50.47
2022-12-09T21:16:30.336Z,55.05
2022-12-09T21:19:00.333Z,53.97
2022-12-09T21:21:30.130Z,49.25
2022-12-09T21:23:57.542Z,50.78
2022-12-09T21:26:26.182Z,54.45
2022-12-09T21:28:54.277Z,51.60
2022-12-09T21:31:24.110Z,64.53
2022-12-09T21:33:53.033Z,43.63
2022-12-09T21:36:26.208Z,57.20
2022-12-09T21:38:53.962Z,58.22
2022-12-09T21:41:24.527Z,55.88
2022-12-09T21:43:55.001Z,47.22
2022-12-09T21:46:30.505Z,47.28
2022-12-09T21:49:03.692Z,55.33
2022-12-09T21:51:32.611Z,54.92
2022-12-09T21:54:00.267Z,45.45
2022-12-09T21:56:30.678Z,52.55
2022-12-09T21:58:59.009Z,51.13
2022-12-09T22:01:37.645Z,54.55
2022-12-09T22:04:07.030Z,59.55
2022-12-09T22:09:02.579Z,50.47
2022-12-09T22:11:31.606Z,52.97
2022-12-09T22:13:59.992Z,57.08
2022-12-09T22:16:30.578Z,53.13
2022-12-09T22:18:59.450Z,57.13
2022-12-09T22:21:29.213Z,49.20
2022-12-09T22:23:59.350Z,55.13
2022-12-09T22:26:27.172Z,49.45
2022-12-09T22:28:54.696Z,58.83
2022-12-09T22:31:27.214Z,56.38
2022-12-09T22:33:56.307Z,56.33
2022-12-09T22:36:23.835Z,60.65
2022-12-09T22:38:52.603Z,58.15
2022-12-09T22:41:22.124Z,67.78
2022-12-09T22:43:50.417Z,64.90
2022-12-09T22:46:23.902Z,60.15
2022-12-09T22:48:51.439Z,54.90
2022-12-09T22:51:24.087Z,59.38
2022-12-09T22:53:53.150Z,54.75
2022-12-09T22:56:21.454Z,56.55
2022-12-09T22:58:48.733Z,52.63
2022-12-09T23:01:23.400Z,54.35
2022-12-09T23:03:50.867Z,57.38
2022-12-09T23:06:18.028Z,54.45
2022-12-09T23:08:45.793Z,53.47
2022-12-09T23:11:24.310Z,51.58
2022-12-09T23:13:51.676Z,52.15
2022-12-09T23:16:21.665Z,53.25
2022-12-09T23:18:49.196Z,55.05
2022-12-09T23:21:22.473Z,46.50
2022-12-09T23:23:53.382Z,51.50
2022-12-09T23:26:21.916Z,52.92
2022-12-09T23:28:50.994Z,47.40
2022-12-09T23:31:20.850Z,52.30
2022-12-09T23:33:48.885Z,47.13
2022-12-09T23:36:20.737Z,49.92
2022-12-09T23:38:48.486Z,48.20
2022-12-09T23:41:17.444Z,52.97
2022-12-09T23:43:45.834Z,48.13
2022-12-09T23:46:16.101Z,50.93
2022-12-09T23:48:47.341Z,53.50
2022-12-09T23:51:20.018Z,54.97
2022-12-09T23:53:49.074Z,53.92
2022-12-09T23:56:18.434Z,47.60
